Hughes, Alaska
Current Conditions -  °F | °C
As of 6:55 AM on Friday 31 Oct 2014 (Local Time) from PAIM Reporting Station
Light Snow Light Snow  
Wind Chill:   Ceiling: 5500
Heat Index: 16°   Visibility: 10mi
Dew Point:   Wind: 15mph
Humidity: 60%   Direction: 50°NE
Pressure: 29.52"   Gusts: 32mph
Location:  66.05°N, 154.26°W
Report Text: PAIM 311455Z AUTO 05013G28KT 360V080 10SM -SN OVC055 M09/M15 A2952 RMK AO2 PK WND 05028/1450 SNB1355 SLP030 P0000 60000 T10911155 58017
Loading
Personal Weather Stations






























Interactive Weather Map
Tropical Storm Tracking
New forecast layout! Learn more

10-Day Weather Forecast

Advertisements
Track Severe Weather on mobile